Nokomis, FL (34274)

8:38 AM EDT on November 01, 2014 (GMT -0400)
East Nokomis, Shakett Creek | Change Station
CLOSE
Current Station
Personal Weather Station
Location: Nokomis, FL
Elevation: 0 ft
Nearby Weather Stations

Elev 0 ft 27.13 °N, 82.43 °W | Updated 2 minutes ago

Mostly Cloudy
Mostly Cloudy
65.5 °F
Feels Like 65.5 °F
N
4.0
Wind Variable Wind from North
Gusts 8.0 mph

Today
High -- | Low -- °F
--% Chance of Precip.
Yesterday
High -- | Low -- °F
Precip. -- in
7:39 AM 6:46 PM
Waxing Gibbous, 66% visible
Pressure 29.98 in
Visibility 10.0 miles
Clouds Few 3500 ft
Scattered Clouds 4200 ft
Overcast 5500 ft
Dew Point 58 °F
Humidity 76%
Rainfall 0.00 in
Snow Depth Not available.
UV 0 out of 12
Pollen 5.00 out of 12
Air Quality Not available.
Flu Activity Not available.
METAR KSRQ 011153Z 34013G25KT 10SM FEW035 SCT042 OVC055 19/12 A2998 RMK AO2 SLP150 60000 T01940122 10217 20194 53028

More Conditions Fewer Conditions

Pressure 29.98 in
Visibility 10.0 miles
Clouds Few 3500 ft
Scattered Clouds 4200 ft
Overcast 5500 ft
Dew Point 58 °F
Humidity 76%
Rainfall 0.00 in
Snow Depth Not available.
UV 0 out of 12
Pollen 5.00 out of 12
Air Quality Not available.
Flu Activity Not available.
METAR KSRQ 011153Z 34013G25KT 10SM FEW035 SCT042 OVC055 19/12 A2998 RMK AO2 SLP150 60000 T01940122 10217 20194 53028

More Conditions Fewer Conditions

10-Day Weather Forecast

Almanac

Astronomy

Nov. 01, 2014 Rise Set
Actual Time
Civil Twilight
Nautical Twilight
Astronomical Twilight
Moon
Length of Visible Light
Length of Day
Tomorrow will be .
, % of the Moon is Illuminated

Today's Extremes

State Highs State Lows

Community

WunderPhotos

Upload Photos

1,766,912 photos uploaded!

WunderBlogs® & News

Nearby

Air Quality

  Air Quality AQ Index Pollutant
Not available.

Snow Depth

Station Depth Elevation

Earthquake Activity

City Distance Mag. Time & Date
Minimum magnitude displayed is 2.5.

Coastal Water Temperatures

Place Temperature

Nearby Weather Stations